createdAt,value
2018-08-22T00:01:30.630Z,18.70
2018-08-22T00:03:58.658Z,19.57
2018-08-22T00:06:26.701Z,19.73
2018-08-22T00:08:54.869Z,19.23
2018-08-22T00:11:22.970Z,20.00
2018-08-22T00:13:51.136Z,19.33
2018-08-22T00:16:19.229Z,19.40
2018-08-22T00:18:48.416Z,19.43
2018-08-22T00:21:16.487Z,18.80
2018-08-22T00:23:44.660Z,18.53
2018-08-22T00:26:12.849Z,18.47
2018-08-22T00:28:41.139Z,18.83
2018-08-22T00:31:09.239Z,19.67
2018-08-22T00:33:37.331Z,18.90
2018-08-22T00:36:05.350Z,17.93
2018-08-22T00:38:33.505Z,19.23
2018-08-22T00:41:01.625Z,18.53
2018-08-22T00:43:30.812Z,18.87
2018-08-22T00:45:58.942Z,18.23
2018-08-22T00:48:26.986Z,18.97
2018-08-22T00:50:55.120Z,18.27
2018-08-22T00:53:23.235Z,19.57
2018-08-22T00:55:51.262Z,18.93
2018-08-22T00:58:19.383Z,19.47
2018-08-22T01:00:47.547Z,19.50
2018-08-22T01:03:15.732Z,18.70
2018-08-22T01:05:43.825Z,20.80
2018-08-22T01:08:11.974Z,18.47
2018-08-22T01:10:40.001Z,19.30
2018-08-22T01:13:08.126Z,20.37
2018-08-22T01:15:36.200Z,19.23
2018-08-22T01:18:04.272Z,18.40
2018-08-22T01:20:32.384Z,18.50
2018-08-22T01:23:00.406Z,19.30
2018-08-22T01:25:28.430Z,18.53
2018-08-22T01:27:56.557Z,19.17
2018-08-22T01:30:24.596Z,22.87
2018-08-22T01:32:52.645Z,17.93
2018-08-22T01:42:19.635Z,22.20
2018-08-22T01:44:47.800Z,16.80
2018-08-22T01:47:16.108Z,16.00
2018-08-22T01:49:44.184Z,17.03
2018-08-22T01:52:12.283Z,16.87
2018-08-22T01:54:40.314Z,18.73
2018-08-22T01:57:08.338Z,17.93
2018-08-22T01:59:36.436Z,18.00
2018-08-22T02:02:04.718Z,19.93
2018-08-22T02:04:32.855Z,17.00
2018-08-22T02:07:00.931Z,17.60
2018-08-22T02:09:28.952Z,16.60
2018-08-22T02:11:57.108Z,17.57
2018-08-22T02:14:25.178Z,18.07
2018-08-22T02:16:53.390Z,16.90
2018-08-22T02:19:21.437Z,17.30
2018-08-22T02:21:49.560Z,17.47
2018-08-22T02:24:17.595Z,17.77
2018-08-22T02:26:45.746Z,17.60
2018-08-22T02:29:13.913Z,18.90
2018-08-22T02:31:42.068Z,17.67
2018-08-22T02:34:10.141Z,17.50
2018-08-22T02:36:38.267Z,17.17
2018-08-22T02:39:07.446Z,16.40
2018-08-22T02:41:35.580Z,16.77
2018-08-22T02:44:03.698Z,15.30
2018-08-22T02:46:31.825Z,16.70
2018-08-22T02:48:59.896Z,15.80
2018-08-22T02:51:27.995Z,16.50
2018-08-22T02:53:56.105Z,15.40
2018-08-22T02:56:24.167Z,16.30
2018-08-22T02:58:52.243Z,16.23
2018-08-22T03:01:20.339Z,15.43
2018-08-22T03:03:48.423Z,16.10
2018-08-22T03:06:16.446Z,17.63
2018-08-22T03:08:44.500Z,16.27
2018-08-22T03:11:12.579Z,15.67
2018-08-22T03:13:40.757Z,15.27
2018-08-22T03:16:08.815Z,15.17
2018-08-22T03:18:36.887Z,15.60
2018-08-22T03:21:04.972Z,15.10
2018-08-22T03:23:33.078Z,15.33
2018-08-22T03:26:01.247Z,15.43
2018-08-22T03:28:29.289Z,14.10
2018-08-22T03:30:57.578Z,15.13
2018-08-22T03:33:25.905Z,13.97
2018-08-22T03:35:54.021Z,16.27
2018-08-22T03:38:22.127Z,15.00
2018-08-22T03:40:50.263Z,15.60
2018-08-22T03:43:18.324Z,14.30
2018-08-22T03:45:46.404Z,15.73
2018-08-22T03:48:14.471Z,15.10
2018-08-22T03:50:42.633Z,15.90
2018-08-22T03:53:10.816Z,14.90
2018-08-22T03:55:38.988Z,15.90
2018-08-22T03:58:07.165Z,14.00
2018-08-22T04:00:35.356Z,15.60
2018-08-22T04:03:03.583Z,16.70
2018-08-22T04:05:31.655Z,15.60
2018-08-22T04:07:59.760Z,16.57
2018-08-22T04:10:27.969Z,15.47
2018-08-22T04:12:56.143Z,15.70
2018-08-22T04:15:24.272Z,16.23
2018-08-22T04:17:52.429Z,17.33
2018-08-22T04:20:20.602Z,15.53
2018-08-22T04:22:48.684Z,16.27
2018-08-22T04:25:16.816Z,15.00
2018-08-22T04:27:44.967Z,16.93
2018-08-22T04:30:13.066Z,15.90
2018-08-22T04:32:41.188Z,16.70
2018-08-22T04:35:09.410Z,15.27
2018-08-22T04:37:37.531Z,15.27
2018-08-22T04:40:05.774Z,16.00
2018-08-22T04:42:33.875Z,15.13
2018-08-22T04:45:02.081Z,15.27
2018-08-22T04:47:30.416Z,15.30
2018-08-22T04:49:58.512Z,16.33
2018-08-22T04:52:26.664Z,17.27
2018-08-22T04:54:54.774Z,15.90
2018-08-22T04:57:22.935Z,17.77
2018-08-22T04:59:50.972Z,17.93
2018-08-22T05:02:19.055Z,17.00
2018-08-22T05:04:47.115Z,17.97
2018-08-22T05:07:15.139Z,18.40
2018-08-22T05:09:43.220Z,18.67
2018-08-22T05:12:11.344Z,18.73
2018-08-22T05:14:39.513Z,17.30
2018-08-22T05:17:07.536Z,15.93
2018-08-22T05:19:35.608Z,20.20
2018-08-22T05:22:03.679Z,18.13
2018-08-22T05:24:31.740Z,17.20
2018-08-22T05:26:59.990Z,16.80
2018-08-22T05:29:28.192Z,17.93
2018-08-22T05:31:58.278Z,19.83
2018-08-22T05:34:26.674Z,17.50
2018-08-22T05:39:46.152Z,21.00
2018-08-22T05:42:14.200Z,18.70
2018-08-22T05:44:42.308Z,20.27
2018-08-22T05:47:10.440Z,19.20
2018-08-22T05:49:38.504Z,21.07
2018-08-22T05:52:06.570Z,20.20
2018-08-22T05:54:34.690Z,19.70
2018-08-22T05:57:02.814Z,20.43
2018-08-22T05:59:30.928Z,20.17
2018-08-22T06:01:59.037Z,19.70
2018-08-22T06:04:27.111Z,20.77
2018-08-22T06:06:55.229Z,20.90
2018-08-22T06:09:23.335Z,22.47
2018-08-22T06:11:53.040Z,22.30
2018-08-22T06:14:21.127Z,21.50
2018-08-22T06:16:49.206Z,30.20
2018-08-22T06:19:17.265Z,30.50
2018-08-22T06:21:45.353Z,23.70
2018-08-22T06:24:13.427Z,26.57
2018-08-22T06:26:41.524Z,26.53
2018-08-22T06:29:09.638Z,24.63
2018-08-22T06:31:37.671Z,24.50
2018-08-22T06:34:05.803Z,25.00
2018-08-22T06:36:33.852Z,21.73
2018-08-22T06:39:01.940Z,24.77
2018-08-22T06:41:29.996Z,23.57
2018-08-22T06:43:58.065Z,22.80
2018-08-22T06:46:26.135Z,23.53
2018-08-22T06:48:54.220Z,23.67
2018-08-22T06:51:22.288Z,23.47
2018-08-22T06:53:50.405Z,24.30
2018-08-22T06:56:18.462Z,23.23
2018-08-22T06:58:46.549Z,33.57
2018-08-22T07:01:14.686Z,24.97
2018-08-22T07:03:42.778Z,24.07
2018-08-22T07:06:10.890Z,25.63
2018-08-22T07:08:39.017Z,24.83
2018-08-22T07:11:07.083Z,24.77
2018-08-22T07:13:35.278Z,24.63
2018-08-22T07:16:03.398Z,26.00
2018-08-22T07:18:31.478Z,25.03
2018-08-22T07:20:59.719Z,25.93
2018-08-22T07:23:27.723Z,26.67
2018-08-22T07:25:55.804Z,26.93
2018-08-22T07:28:23.954Z,27.20
2018-08-22T07:30:52.058Z,26.80
2018-08-22T07:33:20.111Z,26.70
2018-08-22T07:35:48.232Z,33.40
2018-08-22T07:38:16.282Z,28.33
2018-08-22T07:40:44.375Z,26.80
2018-08-22T07:43:12.583Z,25.87
2018-08-22T07:45:40.623Z,26.97
2018-08-22T07:48:08.729Z,28.23
2018-08-22T07:50:36.834Z,25.97
2018-08-22T07:53:05.773Z,27.20
2018-08-22T07:55:42.492Z,27.27
2018-08-22T07:58:10.685Z,26.40
2018-08-22T08:00:38.771Z,36.33
2018-08-22T08:03:06.901Z,28.97
2018-08-22T08:05:35.082Z,27.10
2018-08-22T08:08:03.155Z,28.13
2018-08-22T08:10:31.971Z,28.70
2018-08-22T08:13:00.440Z,27.43
2018-08-22T08:15:28.574Z,28.23
2018-08-22T08:17:57.025Z,25.97
2018-08-22T08:20:25.169Z,26.73
2018-08-22T08:22:53.511Z,26.53
2018-08-22T08:25:21.620Z,25.73
2018-08-22T08:27:49.738Z,25.50
2018-08-22T08:30:17.858Z,26.77
2018-08-22T08:32:46.193Z,26.20
2018-08-22T08:35:14.350Z,24.37
2018-08-22T08:37:42.478Z,26.63
2018-08-22T08:40:10.656Z,27.40
2018-08-22T08:42:39.499Z,26.63
2018-08-22T08:45:08.695Z,27.57
2018-08-22T08:47:37.047Z,26.03
2018-08-22T08:50:05.200Z,26.90
2018-08-22T08:52:33.228Z,27.07
2018-08-22T08:55:01.301Z,28.17
2018-08-22T08:57:29.401Z,28.60
2018-08-22T08:59:57.497Z,28.57
2018-08-22T09:02:26.202Z,27.67
2018-08-22T09:04:54.339Z,29.30
2018-08-22T09:07:22.461Z,28.07
2018-08-22T09:09:50.552Z,29.63
2018-08-22T09:12:18.624Z,28.80
2018-08-22T09:14:46.742Z,28.13
2018-08-22T09:17:14.880Z,27.80
2018-08-22T09:19:43.014Z,27.03
2018-08-22T09:22:11.211Z,27.60
2018-08-22T09:24:39.289Z,27.77
2018-08-22T09:27:07.361Z,31.50
2018-08-22T09:29:35.500Z,27.17
2018-08-22T09:32:03.580Z,27.63
2018-08-22T09:34:31.744Z,27.00
2018-08-22T09:36:59.949Z,28.20
2018-08-22T09:39:28.172Z,28.30
2018-08-22T09:41:56.282Z,28.83
2018-08-22T09:44:24.353Z,27.53
2018-08-22T09:46:52.526Z,28.70
2018-08-22T09:49:20.575Z,27.90
2018-08-22T09:51:48.740Z,27.40
2018-08-22T09:54:16.869Z,28.20
2018-08-22T09:56:44.971Z,28.80
2018-08-22T09:59:13.061Z,27.43
2018-08-22T10:01:43.093Z,28.90
2018-08-22T10:04:11.198Z,27.20
2018-08-22T10:06:41.572Z,26.13
2018-08-22T10:09:14.821Z,27.83
2018-08-22T10:11:42.965Z,28.73
2018-08-22T10:14:11.308Z,28.90
2018-08-22T10:16:39.534Z,27.33
2018-08-22T10:19:07.684Z,26.30
2018-08-22T10:21:35.841Z,27.70
2018-08-22T10:24:03.968Z,27.60
2018-08-22T10:26:32.106Z,27.27
2018-08-22T10:29:00.169Z,26.83
2018-08-22T10:31:28.268Z,26.73
2018-08-22T10:33:56.672Z,27.63
2018-08-22T10:36:24.809Z,27.50
2018-08-22T10:38:52.911Z,28.13
2018-08-22T10:41:21.056Z,27.97
2018-08-22T10:43:49.152Z,27.60
2018-08-22T10:46:17.220Z,28.03
2018-08-22T10:48:45.259Z,27.10
2018-08-22T10:51:13.427Z,28.93
2018-08-22T10:53:41.521Z,28.40
2018-08-22T10:56:09.653Z,29.33
2018-08-22T10:58:37.755Z,28.07
2018-08-22T11:01:05.819Z,26.40
2018-08-22T11:03:34.021Z,27.83
2018-08-22T11:06:02.148Z,26.37
2018-08-22T11:08:30.350Z,27.30
2018-08-22T11:10:58.414Z,26.90
2018-08-22T11:13:26.566Z,28.03
2018-08-22T11:15:54.820Z,26.40
2018-08-22T11:18:22.725Z,27.53
2018-08-22T11:20:53.048Z,27.27
2018-08-22T11:23:33.435Z,28.00
2018-08-22T11:26:13.847Z,27.47
2018-08-22T11:28:53.569Z,27.30
2018-08-22T11:31:33.246Z,28.50
2018-08-22T11:34:12.924Z,29.07
2018-08-22T11:36:41.040Z,27.67
2018-08-22T11:39:09.149Z,28.20
2018-08-22T11:41:37.214Z,30.83
2018-08-22T11:44:05.544Z,29.00
2018-08-22T11:46:33.861Z,28.53
2018-08-22T11:49:02.083Z,28.30
2018-08-22T11:51:30.228Z,28.73
2018-08-22T11:53:58.264Z,29.67
2018-08-22T11:56:26.366Z,28.67
2018-08-22T11:58:54.529Z,30.13
2018-08-22T12:01:22.641Z,28.87
2018-08-22T12:03:50.842Z,28.43
2018-08-22T12:06:18.967Z,27.60
2018-08-22T12:08:46.992Z,31.43
2018-08-22T12:11:15.138Z,28.73
2018-08-22T12:13:43.245Z,28.60
2018-08-22T12:16:11.378Z,28.20
2018-08-22T12:18:39.509Z,28.20
2018-08-22T12:21:07.593Z,27.70
2018-08-22T12:23:35.668Z,28.80
2018-08-22T12:26:03.769Z,29.33
2018-08-22T12:28:31.954Z,28.83
2018-08-22T12:31:00.097Z,28.10
2018-08-22T12:33:28.355Z,29.77
2018-08-22T12:35:56.428Z,32.97
2018-08-22T12:38:24.548Z,29.80
2018-08-22T12:40:52.719Z,26.90
2018-08-22T12:43:20.832Z,27.17
2018-08-22T12:45:48.920Z,27.40
2018-08-22T12:48:16.964Z,27.27
2018-08-22T12:50:45.098Z,27.20
2018-08-22T12:53:13.237Z,27.60
2018-08-22T12:55:41.370Z,26.97
2018-08-22T12:58:09.420Z,26.20
2018-08-22T13:00:37.591Z,26.20
2018-08-22T13:03:05.780Z,27.17
2018-08-22T13:05:34.003Z,27.53
2018-08-22T13:08:02.167Z,28.63
2018-08-22T13:10:31.275Z,28.73
2018-08-22T13:12:59.384Z,28.23
2018-08-22T13:15:27.623Z,26.93
2018-08-22T13:20:17.043Z,28.10
2018-08-22T13:22:45.148Z,28.77
2018-08-22T13:25:13.273Z,29.50
2018-08-22T13:27:41.390Z,29.70
2018-08-22T13:30:09.606Z,29.20
2018-08-22T13:32:37.737Z,29.53
2018-08-22T13:35:06.255Z,30.13
2018-08-22T13:37:34.390Z,29.13
2018-08-22T13:40:02.558Z,29.33
2018-08-22T13:42:30.746Z,28.70
2018-08-22T13:44:58.856Z,28.10
2018-08-22T13:47:26.969Z,28.10
2018-08-22T13:49:55.385Z,28.70
2018-08-22T13:52:23.702Z,28.77
2018-08-22T13:54:51.808Z,29.10
2018-08-22T13:57:20.008Z,28.67
2018-08-22T13:59:48.181Z,28.23
2018-08-22T14:02:16.406Z,26.83
2018-08-22T14:04:44.591Z,28.70
2018-08-22T14:07:12.759Z,28.20
2018-08-22T14:09:40.845Z,29.77
2018-08-22T14:12:09.033Z,27.27
2018-08-22T14:14:37.340Z,28.50
2018-08-22T14:17:05.533Z,26.97
2018-08-22T14:19:33.726Z,27.40
2018-08-22T14:22:01.907Z,27.90
2018-08-22T14:24:30.030Z,27.27
2018-08-22T14:26:58.208Z,27.13
2018-08-22T14:29:26.329Z,25.80
2018-08-22T14:31:54.451Z,27.20
2018-08-22T14:34:22.607Z,27.27
2018-08-22T14:36:50.727Z,26.60
2018-08-22T14:39:19.133Z,27.47
2018-08-22T14:41:47.229Z,28.53
2018-08-22T14:44:15.481Z,28.43
2018-08-22T14:46:43.590Z,27.70
2018-08-22T14:49:11.788Z,28.13
2018-08-22T14:51:40.023Z,27.10
2018-08-22T14:54:08.168Z,28.37
2018-08-22T14:56:36.321Z,28.00
2018-08-22T14:59:05.023Z,28.23
2018-08-22T15:01:33.200Z,28.13
2018-08-22T15:04:01.341Z,28.33
2018-08-22T15:06:29.521Z,28.00
2018-08-22T15:09:04.409Z,28.40
2018-08-22T15:11:33.842Z,27.53
2018-08-22T15:14:01.985Z,29.50
2018-08-22T15:16:30.364Z,28.30
2018-08-22T15:18:58.482Z,27.83
2018-08-22T15:21:26.653Z,29.53
2018-08-22T15:23:55.071Z,28.13
2018-08-22T15:26:24.196Z,28.50
2018-08-22T15:28:52.482Z,27.90
2018-08-22T15:31:20.648Z,28.20
2018-08-22T15:33:48.947Z,28.77
2018-08-22T15:36:17.225Z,26.17
2018-08-22T15:38:45.385Z,27.30
2018-08-22T15:41:14.215Z,27.50
2018-08-22T15:43:42.412Z,26.00
2018-08-22T15:46:10.631Z,26.93
2018-08-22T15:48:38.728Z,27.13
2018-08-22T15:51:06.841Z,26.33
2018-08-22T15:53:34.934Z,27.53
2018-08-22T15:56:03.159Z,25.20
2018-08-22T15:58:31.231Z,27.70
2018-08-22T16:00:59.328Z,27.40
2018-08-22T16:03:27.424Z,31.63
2018-08-22T16:05:56.289Z,32.17
2018-08-22T16:08:25.807Z,26.97
2018-08-22T16:10:53.917Z,26.13
2018-08-22T16:13:27.548Z,26.57
2018-08-22T16:15:56.740Z,26.43
2018-08-22T16:18:24.774Z,27.03
2018-08-22T16:20:54.179Z,29.60
2018-08-22T16:23:24.661Z,28.80
2018-08-22T16:25:53.499Z,27.37
2018-08-22T16:28:22.138Z,26.83
2018-08-22T16:30:57.700Z,27.90
2018-08-22T16:33:23.098Z,28.17
2018-08-22T16:35:51.140Z,27.10
2018-08-22T16:38:19.199Z,28.37
2018-08-22T16:40:49.402Z,28.50
2018-08-22T16:43:34.452Z,29.50
2018-08-22T16:46:04.251Z,28.43
2018-08-22T16:48:32.317Z,27.13
2018-08-22T16:51:00.425Z,27.47
2018-08-22T16:53:28.544Z,28.63
2018-08-22T16:55:56.676Z,28.00
2018-08-22T16:58:24.924Z,27.03
2018-08-22T17:00:53.046Z,28.40
2018-08-22T17:03:21.131Z,28.73
2018-08-22T17:05:49.233Z,28.50
2018-08-22T17:08:17.304Z,28.47
2018-08-22T17:10:55.240Z,27.40
2018-08-22T17:13:29.271Z,27.60
2018-08-22T17:15:58.669Z,28.10
2018-08-22T17:18:27.146Z,28.07
2018-08-22T17:20:55.275Z,28.43
2018-08-22T17:23:23.475Z,27.40
2018-08-22T17:25:51.766Z,26.90
2018-08-22T17:28:25.609Z,27.83
2018-08-22T17:30:53.768Z,27.80
2018-08-22T17:33:24.572Z,26.93
2018-08-22T17:35:57.261Z,27.27
2018-08-22T17:38:25.949Z,26.80
2018-08-22T17:40:54.199Z,28.13
2018-08-22T17:43:22.520Z,30.30
2018-08-22T17:45:50.911Z,28.60
2018-08-22T17:48:19.125Z,27.53
2018-08-22T17:50:47.228Z,27.70
2018-08-22T17:53:15.437Z,27.53
2018-08-22T17:55:43.652Z,27.30
2018-08-22T17:58:11.801Z,27.10
2018-08-22T18:00:39.994Z,27.03
2018-08-22T18:03:08.096Z,26.20
2018-08-22T18:05:36.764Z,25.63
2018-08-22T18:08:06.376Z,27.03
2018-08-22T18:10:36.704Z,27.00
2018-08-22T18:13:10.408Z,28.40
2018-08-22T18:15:38.592Z,27.67
2018-08-22T18:18:06.741Z,28.10
2018-08-22T18:20:38.681Z,29.13
2018-08-22T18:23:06.807Z,29.23
2018-08-22T18:25:35.062Z,30.37
2018-08-22T18:28:04.940Z,30.70
2018-08-22T18:30:33.479Z,35.07
2018-08-22T18:33:02.295Z,39.40
2018-08-22T18:35:30.657Z,33.20
2018-08-22T18:37:58.771Z,30.87
2018-08-22T18:40:31.025Z,29.10
2018-08-22T18:43:02.508Z,31.60
2018-08-22T18:45:30.872Z,31.00
2018-08-22T18:48:02.057Z,31.53
2018-08-22T18:50:30.398Z,27.53
2018-08-22T18:52:59.723Z,27.60
2018-08-22T18:55:29.155Z,28.10
2018-08-22T18:57:58.635Z,27.40
2018-08-22T19:00:26.788Z,28.80
2018-08-22T19:02:56.248Z,28.30
2018-08-22T19:05:32.825Z,28.90
2018-08-22T19:08:11.013Z,28.80
2018-08-22T19:10:40.618Z,27.53
2018-08-22T19:13:10.717Z,27.93
2018-08-22T19:15:39.072Z,27.93
2018-08-22T19:18:08.639Z,28.37
2018-08-22T19:20:37.179Z,27.60
2018-08-22T19:23:05.370Z,28.13
2018-08-22T19:25:33.791Z,29.33
2018-08-22T19:28:02.596Z,27.97
2018-08-22T19:30:31.189Z,30.50
2018-08-22T19:32:59.373Z,28.03
2018-08-22T19:35:27.532Z,30.20
2018-08-22T19:38:01.305Z,32.87
2018-08-22T19:40:29.463Z,29.60
2018-08-22T19:42:58.273Z,30.53
2018-08-22T19:45:26.505Z,29.27
2018-08-22T19:47:54.779Z,30.00
2018-08-22T19:50:22.934Z,29.83
2018-08-22T19:52:51.317Z,36.30
2018-08-22T19:55:19.599Z,30.97
2018-08-22T19:57:47.948Z,30.40
2018-08-22T20:00:16.525Z,30.90
2018-08-22T20:02:46.792Z,30.73
2018-08-22T20:05:14.985Z,30.37
2018-08-22T20:07:43.187Z,30.63
2018-08-22T20:10:12.482Z,29.70
2018-08-22T20:12:44.424Z,29.83
2018-08-22T20:15:12.930Z,30.40
2018-08-22T20:17:41.395Z,31.07
2018-08-22T20:20:10.837Z,29.80
2018-08-22T20:22:42.078Z,30.67
2018-08-22T20:25:11.067Z,29.37
2018-08-22T20:27:39.664Z,29.63
2018-08-22T20:30:12.141Z,29.13
2018-08-22T20:32:58.636Z,28.90
2018-08-22T20:35:28.944Z,28.27
2018-08-22T20:37:58.645Z,29.70
2018-08-22T20:40:26.875Z,38.67
2018-08-22T20:42:55.156Z,30.30
2018-08-22T20:45:28.720Z,31.17
2018-08-22T20:48:02.412Z,28.60
2018-08-22T20:50:30.790Z,30.20
2018-08-22T20:53:00.667Z,30.10
2018-08-22T20:55:28.887Z,29.60
2018-08-22T20:57:58.069Z,29.90
2018-08-22T21:00:26.976Z,28.73
2018-08-22T21:02:56.540Z,27.03
2018-08-22T21:05:24.876Z,28.47
2018-08-22T21:07:53.025Z,27.93
2018-08-22T21:10:21.097Z,30.27
2018-08-22T21:12:49.885Z,30.17
2018-08-22T21:15:18.030Z,30.00
2018-08-22T21:17:46.352Z,27.97
2018-08-22T21:20:23.005Z,29.27
2018-08-22T21:22:51.761Z,30.07
2018-08-22T21:25:19.898Z,28.33
2018-08-22T21:27:48.980Z,30.40
2018-08-22T21:30:17.471Z,28.87
2018-08-22T21:32:46.581Z,29.50
2018-08-22T21:35:25.850Z,30.90
2018-08-22T21:37:58.131Z,29.60
2018-08-22T21:40:26.296Z,30.40
2018-08-22T21:42:54.548Z,30.03
2018-08-22T21:45:22.889Z,28.97
2018-08-22T21:48:04.619Z,29.20
2018-08-22T21:50:32.796Z,29.10
2018-08-22T21:53:02.260Z,29.73
2018-08-22T21:55:35.899Z,28.90
2018-08-22T21:58:04.502Z,29.33
2018-08-22T22:00:32.662Z,28.57
2018-08-22T22:03:00.727Z,29.27
2018-08-22T22:05:40.258Z,29.63
2018-08-22T22:08:08.839Z,30.17
2018-08-22T22:10:36.872Z,30.33
2018-08-22T22:13:04.948Z,28.60
2018-08-22T22:15:38.479Z,29.00
2018-08-22T22:18:07.056Z,28.03
2018-08-22T22:20:35.135Z,29.87
2018-08-22T22:23:03.245Z,28.60
2018-08-22T22:25:31.309Z,27.87
2018-08-22T22:27:59.418Z,28.97
2018-08-22T22:30:27.492Z,26.93
2018-08-22T22:32:57.524Z,28.53
2018-08-22T22:35:31.062Z,27.83
2018-08-22T22:38:05.821Z,29.37
2018-08-22T22:40:33.974Z,28.33
2018-08-22T22:43:02.081Z,29.20
2018-08-22T22:45:30.276Z,29.00
2018-08-22T22:47:58.393Z,27.33
2018-08-22T22:50:26.509Z,27.23
2018-08-22T22:52:54.647Z,26.83
2018-08-22T22:55:22.724Z,27.43
2018-08-22T22:57:50.830Z,27.90
2018-08-22T23:00:19.432Z,28.30
2018-08-22T23:02:53.240Z,29.00
2018-08-22T23:05:21.369Z,29.13
2018-08-22T23:07:49.428Z,29.30
2018-08-22T23:10:17.492Z,30.10
2018-08-22T23:12:47.087Z,28.03
2018-08-22T23:15:19.815Z,26.50
2018-08-22T23:17:48.018Z,27.90
2018-08-22T23:20:43.073Z,27.97
2018-08-22T23:23:29.057Z,28.23
2018-08-22T23:26:04.764Z,28.53
2018-08-22T23:28:32.884Z,28.00
2018-08-22T23:31:01.022Z,26.80
2018-08-22T23:33:29.141Z,26.97
2018-08-22T23:35:57.186Z,31.70
2018-08-22T23:38:31.187Z,25.90
2018-08-22T23:40:59.828Z,27.37
2018-08-22T23:43:35.772Z,26.97
2018-08-22T23:46:04.097Z,26.33
2018-08-22T23:48:34.437Z,27.53
2018-08-22T23:51:03.870Z,25.90
2018-08-22T23:53:37.614Z,25.57
2018-08-22T23:56:14.285Z,25.90
2018-08-22T23:58:43.398Z,24.63
